Time;durP1;ratioP1;P1;durP2;ratioP2;P2;SDS_P1;SDS_P2;PMS_P1;PMS_P2;Temp;Humidity;BMP_temperature;BMP_pressure;BME280_temperature;BME280_humidity;BME280_pressure;Samples;Min_cycle;Max_cycle;Signal;HPM_P1;HPM_P2
2022/09/16 00:00:11;;;;;;;6.03;2.72;;;;;;;11.18;100.00;101104.78;6126224;23;20005;-83
2022/09/16 00:02:36;;;;;;;9.07;2.70;;;;;;;11.00;100.00;101069.72;6126111;23;20431;-83
2022/09/16 00:05:02;;;;;;;10.02;3.10;;;;;;;11.22;100.00;101110.63;6126432;23;20010;-78
2022/09/16 00:07:29;;;;;;;7.40;2.67;;;;;;;11.21;100.00;101109.81;6126385;23;20081;-83
2022/09/16 00:09:54;;;;;;;7.90;2.80;;;;;;;11.17;100.00;101106.56;6125953;23;20491;-82
2022/09/16 00:12:19;;;;;;;7.90;3.13;;;;;;;11.18;100.00;101107.38;6126444;23;20073;-81
2022/09/16 00:14:45;;;;;;;9.30;2.88;;;;;;;11.20;100.00;101098.59;6126147;23;20002;-83
2022/09/16 00:17:10;;;;;;;8.85;2.88;;;;;;;11.11;100.00;101086.28;6126117;23;20017;-82
2022/09/16 00:19:35;;;;;;;9.70;3.15;;;;;;;11.17;100.00;101085.88;6126147;23;20002;-83
2022/09/16 00:22:01;;;;;;;9.18;3.00;;;;;;;11.24;100.00;101098.44;6127189;23;20006;-82
2022/09/16 00:24:27;;;;;;;8.57;2.80;;;;;;;11.18;100.00;101082.38;6128243;23;20068;-82
2022/09/16 00:26:52;;;;;;;8.15;3.17;;;;;;;11.28;100.00;101097.31;6127428;23;20388;-77
2022/09/16 00:29:17;;;;;;;7.93;3.25;;;;;;;11.20;100.00;101090.84;6127880;23;20006;-81
2022/09/16 00:31:43;;;;;;;7.75;2.88;;;;;;;11.24;100.00;101098.44;6127759;23;20081;-82
2022/09/16 00:34:08;;;;;;;9.30;2.78;;;;;;;11.18;100.00;101102.22;6127768;23;20006;-82
2022/09/16 00:36:33;;;;;;;9.98;2.50;;;;;;;11.14;100.00;101101.59;6128072;23;20006;-81
2022/09/16 00:38:59;;;;;;;11.43;3.10;;;;;;;11.11;100.00;101098.34;6127551;23;20065;-81
2022/09/16 00:41:27;;;;;;;7.63;2.88;;;;;;;11.01;100.00;101089.47;6127623;23;20005;-80
2022/09/16 00:43:56;;;;;;;11.82;3.00;;;;;;;10.98;100.00;101106.00;6127752;23;20328;-83
2022/09/16 00:46:41;;;;;;;6.40;2.85;;;;;;;10.88;100.00;101084.22;6127620;23;20036;-77
2022/09/16 00:49:16;;;;;;;7.25;2.85;;;;;;;10.75;100.00;101068.63;6128101;23;20006;-80
2022/09/16 00:51:43;;;;;;;7.80;2.70;;;;;;;10.83;100.00;101086.28;6127673;23;20005;-82
2022/09/16 00:54:10;;;;;;;9.35;2.88;;;;;;;10.74;100.00;101092.81;6127910;23;20084;-82
2022/09/16 00:56:39;;;;;;;11.80;3.25;;;;;;;10.69;100.00;101088.81;6127696;23;20002;-82
2022/09/16 00:59:09;;;;;;;7.25;2.85;;;;;;;10.47;100.00;101068.59;6127650;23;20332;-79
2022/09/16 01:01:37;;;;;;;8.45;2.97;;;;;;;10.51;100.00;101090.72;6127467;23;20005;-82
2022/09/16 01:04:11;;;;;;;7.13;2.50;;;;;;;10.32;100.00;101068.59;6127788;23;20006;-80
2022/09/16 01:06:38;;;;;;;10.18;3.35;;;;;;;10.28;100.00;101077.41;6127693;23;20009;-80
2022/09/16 01:09:04;;;;;;;9.38;2.92;;;;;;;10.26;100.00;101084.44;6127446;23;20085;-80
2022/09/16 01:11:30;;;;;;;8.15;2.65;;;;;;;10.04;100.00;101055.59;6127372;23;20033;-82
2022/09/16 01:14:51;;;;;;;7.45;3.05;;;;;;;10.17;100.00;101086.66;6127337;23;20002;-81
2022/09/16 01:16:47;;;;;;;6.57;3.25;;;;;;;10.09;100.00;101079.34;6127237;23;20010;-83
2022/09/16 01:19:41;;;;;;;7.68;3.13;;;;;;;10.05;100.00;101076.13;6127474;23;20009;-82
2022/09/16 01:22:34;;;;;;;9.63;3.22;;;;;;;10.03;100.00;101087.47;6127367;23;20001;-80
2022/09/16 01:25:02;;;;;;;7.25;3.13;;;;;;;9.99;100.00;101081.63;6127295;23;20002;-81
2022/09/16 01:27:50;;;;;;;9.27;3.40;;;;;;;9.96;100.00;101081.81;6126790;23;20029;-78
2022/09/16 01:30:28;;;;;;;8.30;3.05;;;;;;;9.83;100.00;101064.50;6125930;23;20013;-78
2022/09/16 01:33:03;;;;;;;11.13;3.60;;;;;;;9.95;100.00;101076.75;6126683;23;20455;-81
2022/09/16 01:35:59;;;;;;;9.00;3.72;;;;;;;9.94;100.00;101078.50;6127130;23;20013;-80
2022/09/16 01:39:03;;;;;;;8.70;3.70;;;;;;;9.94;100.00;101081.06;6127189;23;20010;-81
2022/09/16 01:41:52;;;;;;;8.73;3.78;;;;;;;9.79;100.00;101066.44;5981387;24;20430;-81
2022/09/16 01:44:38;;;;;;;7.32;4.00;;;;;;;9.74;100.00;101061.56;5981430;24;20012;-80
2022/09/16 01:47:20;;;;;;;8.50;3.92;;;;;;;9.57;100.00;101059.06;5981557;24;20423;-76
2022/09/16 01:49:57;;;;;;;7.80;3.88;;;;;;;9.49;100.00;101056.91;5981153;24;20012;-82
2022/09/16 01:52:36;;;;;;;9.23;4.25;;;;;;;9.61;100.00;101078.59;5981367;24;20004;-80
2022/09/16 01:55:06;;;;;;;8.40;3.90;;;;;;;9.46;100.00;101062.25;5981417;24;20051;-80
2022/09/16 01:57:34;;;;;;;11.05;3.92;;;;;;;9.49;100.00;101074.94;5981249;24;20569;-81
2022/09/16 02:00:05;;;;;;;10.68;4.68;;;;;;;9.45;100.00;101081.19;5981325;24;20008;-81
2022/09/16 02:02:39;;;;;;;9.32;4.10;;;;;;;9.41;100.00;101092.56;5981295;24;20072;-81
2022/09/16 02:05:12;;;;;;;10.00;4.53;;;;;;;9.38;100.00;101069.53;5981026;23;20342;-81
2022/09/16 02:07:43;;;;;;;11.25;4.30;;;;;;;9.48;100.00;101075.03;5981349;24;20012;-79
2022/09/16 02:10:24;;;;;;;10.20;4.38;;;;;;;9.45;100.00;101076.03;5981528;24;20136;-76
2022/09/16 02:12:53;;;;;;;13.77;4.90;;;;;;;9.55;100.00;101085.84;5980958;24;20370;-81
2022/09/16 02:15:22;;;;;;;10.52;5.10;;;;;;;9.55;100.00;101084.09;5981292;24;20015;-79
2022/09/16 02:17:58;;;;;;;8.80;5.13;;;;;;;9.49;100.00;101062.06;6026511;23;20336;-79
2022/09/16 02:20:26;;;;;;;11.70;5.40;;;;;;;9.70;100.00;101090.16;6127125;23;20033;-79
2022/09/16 02:22:58;;;;;;;11.32;5.63;;;;;;;9.82;100.00;101094.63;6126758;23;20081;-81
2022/09/16 02:25:26;;;;;;;10.25;4.90;;;;;;;9.82;100.00;101081.72;6127026;23;20380;-81
2022/09/16 02:27:52;;;;;;;11.30;4.97;;;;;;;9.89;100.00;101088.22;6126402;23;20014;-76
2022/09/16 02:30:20;;;;;;;9.27;4.93;;;;;;;9.81;100.00;101076.66;6126802;23;20002;-77
2022/09/16 02:32:50;;;;;;;9.43;5.13;;;;;;;9.98;100.00;101092.88;6126507;23;20061;-79
2022/09/16 02:35:18;;;;;;;13.48;5.00;;;;;;;10.01;100.00;101091.84;6126950;23;20365;-80
2022/09/16 02:38:09;;;;;;;11.70;4.70;;;;;;;10.05;100.00;101094.19;6126681;23;20009;-77
2022/09/16 02:40:44;;;;;;;14.48;4.38;;;;;;;9.96;100.00;101066.31;6107264;23;20010;-80
2022/09/16 02:43:10;;;;;;;10.20;3.90;;;;;;;10.11;100.00;101084.44;6126734;23;20383;-82
2022/09/16 02:45:47;;;;;;;10.60;4.05;;;;;;;10.14;100.00;101081.69;6126549;23;20010;-78
2022/09/16 02:48:26;;;;;;;9.10;4.20;;;;;;;10.15;100.00;101078.19;6126628;23;20002;-77
2022/09/16 02:51:40;;;;;;;10.82;4.07;;;;;;;10.19;100.00;101074.50;6126608;23;20010;-76
2022/09/16 02:54:32;;;;;;;9.05;3.40;;;;;;;10.25;100.00;101084.53;6008826;23;20057;-79
2022/09/16 02:56:58;;;;;;;7.00;3.60;;;;;;;10.30;100.00;101080.72;6008920;23;20007;-80
2022/09/16 02:59:24;;;;;;;10.23;3.30;;;;;;;10.33;100.00;101080.59;6008611;23;20012;-78
2022/09/16 03:01:49;;;;;;;7.30;2.83;;;;;;;10.32;100.00;101075.47;6009257;23;20007;-78
2022/09/16 03:04:17;;;;;;;7.43;3.08;;;;;;;10.44;100.00;101081.72;5985630;23;20095;-77
2022/09/16 03:06:44;;;;;;;7.10;2.80;;;;;;;10.39;100.00;101069.06;6008676;23;20114;-78
2022/09/16 03:09:12;;;;;;;10.48;2.88;;;;;;;10.51;100.00;101086.41;6009055;23;20014;-82
2022/09/16 03:12:05;;;;;;;9.32;2.97;;;;;;;10.56;100.00;101076.66;6008892;23;20004;-79
2022/09/16 03:14:35;;;;;;;8.85;2.92;;;;;;;10.56;100.00;101076.66;6008475;23;20095;-79
2022/09/16 03:17:43;;;;;;;8.15;2.85;;;;;;;10.44;100.00;101056.72;6008957;23;20056;-80
2022/09/16 03:20:35;;;;;;;7.72;2.70;;;;;;;10.62;100.00;101084.03;6008786;23;20011;-78
2022/09/16 03:23:22;;;;;;;9.30;2.30;;;;;;;10.63;100.00;101077.13;6008819;23;20331;-79
2022/09/16 03:26:06;;;;;;;9.07;2.67;;;;;;;10.65;100.00;101070.09;6008552;23;20078;-79
2022/09/16 03:28:41;;;;;;;7.18;2.47;;;;;;;10.47;100.00;101038.44;6008370;23;20016;-77
2022/09/16 03:31:10;;;;;;;6.90;2.75;;;;;;;10.65;100.00;101071.88;6077909;23;20006;-81
2022/09/16 03:34:05;;;;;;;8.00;2.10;;;;;;;10.66;100.00;101068.34;6126383;23;20025;-81
2022/09/16 03:36:36;;;;;;;7.10;2.17;;;;;;;10.61;100.00;101064.28;6126602;23;20010;-80
2022/09/16 03:39:03;;;;;;;5.35;1.65;;;;;;;10.65;100.00;101074.44;6126277;23;20002;-81
2022/09/16 03:41:31;;;;;;;9.30;2.35;;;;;;;10.62;100.00;101065.97;6126285;23;20057;-78
2022/09/16 03:43:58;;;;;;;7.75;1.80;;;;;;;10.61;100.00;101072.03;6125998;23;20040;-81
2022/09/16 03:46:25;;;;;;;2.85;1.40;;;;;;;10.49;100.00;101056.44;6126147;23;20028;-80
2022/09/16 03:48:51;;;;;;;3.35;1.50;;;;;;;10.56;100.00;101065.50;6126300;23;20012;-80
2022/09/16 03:51:17;;;;;;;4.95;1.40;;;;;;;10.53;100.00;101074.25;6126224;23;20332;-79
2022/09/16 03:53:42;;;;;;;6.63;2.00;;;;;;;10.40;100.00;101055.22;6126415;23;20002;-77
2022/09/16 03:56:08;;;;;;;5.80;1.52;;;;;;;10.47;100.00;101064.28;6126781;23;20006;-80
2022/09/16 03:58:33;;;;;;;4.70;1.38;;;;;;;10.45;100.00;101065.28;6127917;23;20010;-77
2022/09/16 04:00:59;;;;;;;4.10;1.30;;;;;;;10.43;100.00;101067.13;6128411;23;20002;-78
2022/09/16 04:03:24;;;;;;;5.55;1.50;;;;;;;10.42;100.00;101071.47;6128158;23;19998;-80
2022/09/16 04:05:53;;;;;;;5.43;1.60;;;;;;;10.43;100.00;101075.72;6128052;23;20384;-81
2022/09/16 04:08:19;;;;;;;4.88;1.50;;;;;;;10.45;100.00;101073.88;6127933;23;20002;-76
2022/09/16 04:11:01;;;;;;;4.88;1.40;;;;;;;10.46;100.00;101075.53;6127835;23;20008;-80
2022/09/16 04:13:32;;;;;;;7.85;2.00;;;;;;;10.45;100.00;101070.47;6127878;23;20009;-81
2022/09/16 04:15:57;;;;;;;4.88;1.55;;;;;;;10.38;100.00;101069.97;6128342;23;20093;-78
2022/09/16 04:18:22;;;;;;;4.60;1.92;;;;;;;10.44;100.00;101071.38;6128064;23;20033;-77
2022/09/16 04:20:47;;;;;;;6.85;1.73;;;;;;;10.37;100.00;101067.47;6128047;23;20021;-77
2022/09/16 04:23:13;;;;;;;4.53;1.52;;;;;;;10.36;100.00;101083.91;6127791;23;20424;-80
2022/09/16 04:25:39;;;;;;;5.43;1.92;;;;;;;10.31;100.00;101073.81;6127914;23;20012;-77
2022/09/16 04:28:05;;;;;;;4.88;1.67;;;;;;;10.25;100.00;101079.34;6127642;23;20053;-77
2022/09/16 04:30:30;;;;;;;6.10;1.65;;;;;;;10.25;100.00;101084.53;6127599;23;20010;-79
2022/09/16 04:32:56;;;;;;;3.72;1.45;;;;;;;10.17;100.00;101060.88;6127857;23;20012;-78
2022/09/16 04:35:22;;;;;;;7.65;2.10;;;;;;;10.30;100.00;101075.56;6127872;23;20029;-76
2022/09/16 04:37:48;;;;;;;4.97;1.80;;;;;;;10.43;100.00;101085.22;6127547;23;20127;-79
2022/09/16 04:40:14;;;;;;;4.68;1.60;;;;;;;10.47;100.00;101079.75;6127876;23;20077;-77
2022/09/16 04:42:39;;;;;;;7.60;1.65;;;;;;;10.52;100.00;101071.72;6127961;23;20006;-80
2022/09/16 04:45:05;;;;;;;6.88;1.73;;;;;;;10.52;100.00;101069.16;6127479;23;20010;-79
2022/09/16 04:47:30;;;;;;;4.47;1.60;;;;;;;10.48;100.00;101052.19;6127653;23;20013;-78
2022/09/16 04:49:56;;;;;;;4.95;1.50;;;;;;;10.32;100.00;101023.84;6128069;23;20439;-79
2022/09/16 04:52:21;;;;;;;8.38;1.60;;;;;;;10.54;100.00;101055.25;6127449;23;20364;-80
2022/09/16 04:54:46;;;;;;;4.95;1.40;;;;;;;10.47;100.00;101041.03;6127836;23;20013;-78
2022/09/16 04:57:12;;;;;;;6.50;1.40;;;;;;;10.46;100.00;101038.56;6127531;23;20327;-79
2022/09/16 04:59:37;;;;;;;5.13;1.40;;;;;;;10.51;100.00;101054.59;6127371;23;20424;-81
2022/09/16 05:02:03;;;;;;;4.97;1.83;;;;;;;10.46;100.00;101061.78;6127871;23;20002;-78
2022/09/16 05:04:28;;;;;;;5.75;1.90;;;;;;;10.50;100.00;101071.84;6127467;23;20026;-78
2022/09/16 05:06:53;;;;;;;8.10;1.65;;;;;;;10.43;100.00;101070.56;6127297;23;20010;-80
2022/09/16 05:09:21;;;;;;;6.57;1.50;;;;;;;10.45;100.00;101085.94;6127677;23;20006;-78
2022/09/16 05:11:47;;;;;;;7.05;1.73;;;;;;;10.40;100.00;101075.88;6127468;23;20077;-79
2022/09/16 05:14:14;;;;;;;5.18;1.60;;;;;;;10.38;100.00;101079.47;6127543;23;20132;-81
2022/09/16 05:16:40;;;;;;;4.07;1.33;;;;;;;10.26;100.00;101068.94;6127416;23;20479;-77
2022/09/16 05:19:06;;;;;;;4.47;1.17;;;;;;;10.36;100.00;101086.47;6127380;23;20009;-81
2022/09/16 05:21:35;;;;;;;5.18;1.58;;;;;;;10.36;100.00;101092.47;6127271;23;20081;-80
2022/09/16 05:24:01;;;;;;;3.08;1.20;;;;;;;10.40;100.00;101088.78;6127219;23;20009;-80
2022/09/16 05:26:29;;;;;;;3.70;1.30;;;;;;;10.42;100.00;101071.47;6127150;23;20085;-81
2022/09/16 05:28:55;;;;;;;5.35;1.67;;;;;;;10.46;100.00;101069.53;6127562;23;20389;-77
2022/09/16 05:31:26;;;;;;;8.10;1.95;;;;;;;10.42;100.00;101061.16;6126925;23;20009;-79
2022/09/16 05:33:53;;;;;;;;;;;;;;;10.51;100.00;101075.25;6127752;23;20034;-80
2022/09/16 05:36:19;;;;;;;4.03;0.93;;;;;;;10.42;100.00;101063.72;6127534;23;19948;-79
2022/09/16 05:38:45;;;;;;;5.18;1.42;;;;;;;10.28;100.00;101032.72;6127061;23;20005;-79
2022/09/16 05:41:11;;;;;;;4.57;1.15;;;;;;;10.51;100.00;101076.06;6127208;23;20016;-79
2022/09/16 05:43:37;;;;;;;5.53;1.38;;;;;;;10.48;100.00;101076.25;6127323;23;20006;-78
2022/09/16 05:46:04;;;;;;;5.15;1.02;;;;;;;10.34;100.00;101051.25;6125904;23;20579;-74
2022/09/16 05:48:30;;;;;;;5.45;1.20;;;;;;;10.52;100.00;101088.09;6126672;23;20331;-75
2022/09/16 05:50:58;;;;;;;6.97;1.10;;;;;;;10.52;100.00;101090.66;6127139;23;20002;-77
2022/09/16 05:53:25;;;;;;;2.00;0.80;;;;;;;10.53;100.00;101087.16;6127177;23;20006;-78
2022/09/16 05:55:58;;;;;;;4.15;1.30;;;;;;;10.58;100.00;101090.28;6127065;23;20332;-79
2022/09/16 05:58:25;;;;;;;4.05;1.10;;;;;;;10.65;100.00;101088.19;6127374;23;20064;-77
2022/09/16 06:00:51;;;;;;;4.95;1.23;;;;;;;10.73;100.00;101093.75;6127036;23;20029;-78
2022/09/16 06:03:18;;;;;;;5.18;1.20;;;;;;;10.85;100.00;101092.16;6126690;23;20002;-83
2022/09/16 06:05:43;;;;;;;4.80;1.52;;;;;;;10.93;100.00;101087.38;6127089;23;20009;-77
2022/09/16 06:08:08;;;;;;;6.30;1.73;;;;;;;11.00;100.00;101096.41;6127067;23;20471;-78
2022/09/16 06:10:40;;;;;;;3.53;1.23;;;;;;;11.07;100.00;101112.38;6126769;23;20010;-78
2022/09/16 06:13:06;;;;;;;7.57;1.90;;;;;;;10.94;100.00;101086.44;6126869;23;20336;-77
2022/09/16 06:15:32;;;;;;;5.78;1.40;;;;;;;10.79;100.00;101062.34;6126600;23;20012;-79
2022/09/16 06:17:57;;;;;;;4.95;1.30;;;;;;;10.99;100.00;101099.09;6126631;23;20084;-78
2022/09/16 06:20:23;;;;;;;5.32;1.60;;;;;;;10.92;100.00;101101.22;6126488;23;20033;-77
2022/09/16 06:22:48;;;;;;;8.52;1.90;;;;;;;10.88;100.00;101092.81;6126701;23;20002;-77
2022/09/16 06:25:14;;;;;;;5.88;2.40;;;;;;;10.90;100.00;101090.94;6126765;23;20010;-79
2022/09/16 06:27:39;;;;;;;6.10;2.35;;;;;;;11.06;100.00;101101.22;6126514;23;20010;-78
2022/09/16 06:30:05;;;;;;;6.43;2.53;;;;;;;11.22;100.00;101108.03;6126801;23;20351;-78
2022/09/16 06:32:31;;;;;;;5.82;2.35;;;;;;;11.13;100.00;101076.66;6126906;23;20084;-77
2022/09/16 06:34:56;;;;;;;7.85;2.80;;;;;;;11.65;100.00;101119.97;6126550;23;20324;-78
2022/09/16 06:37:21;;;;;;;10.00;2.67;;;;;;;11.89;100.00;101127.94;6126942;23;20049;-77
2022/09/16 06:39:47;;;;;;;7.90;2.60;;;;;;;12.89;100.00;101115.31;6126865;23;20025;-77
2022/09/16 06:42:12;;;;;;;7.50;1.85;;;;;;;14.15;93.92;101085.66;6126809;23;20006;-79
2022/09/16 06:44:37;;;;;;;5.07;1.88;;;;;;;14.07;87.40;101061.09;6126569;23;20028;-76
2022/09/16 06:47:03;;;;;;;5.82;2.25;;;;;;;13.74;89.10;101120.66;6126396;23;20005;-78
2022/09/16 06:49:28;;;;;;;6.18;2.00;;;;;;;13.73;90.57;101114.63;6126441;23;20009;-78
2022/09/16 06:51:53;;;;;;;4.38;1.75;;;;;;;13.94;87.64;101114.84;6126626;23;20119;-77
2022/09/16 06:54:18;;;;;;;6.75;1.85;;;;;;;13.85;89.45;101112.91;6126675;23;20002;-78
2022/09/16 06:56:44;;;;;;;8.60;2.10;;;;;;;14.63;87.28;101113.22;6126419;23;20002;-78
2022/09/16 06:59:11;;;;;;;6.13;1.80;;;;;;;15.72;80.41;101103.00;6126368;23;20013;-79
2022/09/16 07:01:37;;;;;;;5.05;1.55;;;;;;;15.71;78.76;101100.53;6126656;23;20081;-77
2022/09/16 07:04:09;;;;;;;5.43;1.65;;;;;;;14.87;81.96;101084.53;6126449;23;20050;-77
2022/09/16 07:06:35;;;;;;;6.30;1.65;;;;;;;14.13;83.79;101096.16;6126444;23;20034;-79
2022/09/16 07:09:01;;;;;;;4.30;1.70;;;;;;;13.40;87.64;101076.34;6126588;23;20021;-77
2022/09/16 07:11:26;;;;;;;5.82;1.50;;;;;;;13.11;89.38;101093.91;6126479;23;20491;-77
2022/09/16 07:13:52;;;;;;;5.22;1.83;;;;;;;12.92;91.82;101112.50;6126136;23;20049;-76
2022/09/16 07:16:23;;;;;;;4.55;2.05;;;;;;;12.67;93.83;101119.44;6126533;23;20057;-77
2022/09/16 07:18:57;;;;;;;5.75;1.88;;;;;;;12.61;95.83;101120.69;6100399;23;20008;-78
2022/09/16 07:21:27;;;;;;;6.63;2.50;;;;;;;12.32;94.93;101082.00;6126641;23;20012;-78
2022/09/16 07:23:54;;;;;;;7.63;2.25;;;;;;;12.53;95.91;101121.19;6126098;23;20025;-78
2022/09/16 07:26:22;;;;;;;5.75;2.45;;;;;;;12.55;96.89;101111.56;6126053;23;20064;-79
2022/09/16 07:28:49;;;;;;;7.00;2.35;;;;;;;12.54;97.19;101111.66;6126314;23;20452;-77
2022/09/16 07:31:17;;;;;;;7.97;1.90;;;;;;;12.88;95.96;101124.03;6126792;23;20438;-79
2022/09/16 07:33:46;;;;;;;6.05;2.10;;;;;;;13.27;95.20;101114.44;6128083;23;20001;-79
2022/09/16 07:36:14;;;;;;;6.90;2.33;;;;;;;13.75;92.78;101127.50;6128408;23;20010;-77
2022/09/16 07:38:39;;;;;;;8.60;2.10;;;;;;;13.97;90.76;101129.41;6128355;23;20332;-77
2022/09/16 07:41:11;;;;;;;7.75;2.15;;;;;;;13.99;90.53;101127.50;6128044;23;20006;-75
2022/09/16 07:43:37;;;;;;;5.50;1.65;;;;;;;13.90;89.98;101125.56;6128174;23;20002;-78
2022/09/16 07:46:03;;;;;;;4.55;1.42;;;;;;;13.74;90.07;101128.44;6128047;23;20006;-79
2022/09/16 07:48:30;;;;;;;6.22;1.88;;;;;;;13.59;91.25;101121.75;6128277;23;20329;-80
2022/09/16 07:51:23;;;;;;;5.00;1.63;;;;;;;13.45;91.66;101125.31;6128070;23;20373;-79
2022/09/16 07:53:54;;;;;;;4.63;1.30;;;;;;;13.01;91.29;101092.06;6122099;23;20006;-78
2022/09/16 07:56:21;;;;;;;6.45;1.77;;;;;;;13.00;92.82;101111.97;6128334;23;20009;-74
2022/09/16 07:58:47;;;;;;;6.72;1.88;;;;;;;12.89;93.52;101115.31;6128420;23;20029;-77
2022/09/16 08:01:15;;;;;;;6.05;1.60;;;;;;;12.94;94.83;101138.31;6128348;23;20040;-78
2022/09/16 08:03:42;;;;;;;5.35;1.77;;;;;;;12.73;96.22;101109.50;6127820;23;20006;-76
2022/09/16 08:06:13;;;;;;;8.18;1.63;;;;;;;12.88;98.38;101141.31;6127938;23;20005;-78
2022/09/16 08:08:39;;;;;;;6.47;1.73;;;;;;;12.83;96.70;101136.44;6127888;23;20010;-77
2022/09/16 08:11:05;;;;;;;6.03;1.80;;;;;;;12.71;97.05;101118.31;6127961;23;20032;-77
2022/09/16 08:13:32;;;;;;;7.55;2.10;;;;;;;12.77;97.81;101136.84;6128267;23;20013;-77
2022/09/16 08:16:06;;;;;;;6.85;2.00;;;;;;;12.84;98.67;101148.47;6127949;23;20010;-77
2022/09/16 08:18:32;;;;;;;8.00;2.78;;;;;;;12.87;97.72;101150.84;6127572;23;20006;-79
2022/09/16 08:21:03;;;;;;;5.43;1.80;;;;;;;12.75;97.23;101115.41;6101970;23;20396;-79
2022/09/16 08:23:28;;;;;;;6.95;2.38;;;;;;;12.96;96.76;101143.38;6128011;23;20006;-78
2022/09/16 08:26:00;;;;;;;6.43;1.60;;;;;;;12.89;94.86;101125.69;6127526;23;20068;-77
2022/09/16 08:28:27;;;;;;;4.97;1.88;;;;;;;13.03;93.89;101144.63;6102099;23;20371;-78
2022/09/16 08:30:52;;;;;;;5.35;1.50;;;;;;;13.06;93.05;101142.66;6127730;23;20301;-76
2022/09/16 08:33:20;;;;;;;5.05;1.58;;;;;;;13.11;92.71;101122.44;6127868;23;20017;-77
2022/09/16 08:35:56;;;;;;;5.35;1.52;;;;;;;13.48;91.81;101148.47;6101879;23;20397;-76
2022/09/16 08:38:21;;;;;;;7.97;1.58;;;;;;;13.68;90.74;101158.25;6127846;23;20002;-77
2022/09/16 08:40:46;;;;;;;9.27;1.70;;;;;;;13.81;89.95;101155.63;6127548;23;20487;-76
2022/09/16 08:43:20;;;;;;;6.93;1.60;;;;;;;13.92;89.22;101160.88;6127231;23;20005;-77
2022/09/16 08:46:21;;;;;;;7.13;1.65;;;;;;;14.04;89.74;101153.97;6127346;23;20009;-77
2022/09/16 08:49:12;;;;;;;6.63;1.83;;;;;;;13.82;89.15;101104.53;5981629;24;20338;-77
2022/09/16 08:51:38;;;;;;;7.97;2.17;;;;;;;14.09;88.36;101144.09;5981827;24;20423;-77
2022/09/16 08:54:34;;;;;;;4.57;1.55;;;;;;;14.20;86.83;101149.31;5981902;24;20019;-77
2022/09/16 08:57:03;;;;;;;6.05;1.83;;;;;;;14.41;85.96;101154.72;5898980;24;20016;-76
2022/09/16 08:59:36;;;;;;;3.90;1.23;;;;;;;14.49;83.67;101156.78;5899090;24;20014;-76
2022/09/16 09:02:10;;;;;;;5.28;1.50;;;;;;;14.64;83.42;101147.81;5898997;24;20462;-76
2022/09/16 09:04:35;;;;;;;4.32;1.10;;;;;;;14.82;81.76;101154.25;5898599;24;20009;-76
2022/09/16 09:07:16;;;;;;;6.43;1.40;;;;;;;14.78;81.79;101139.00;5898951;24;20017;-76
2022/09/16 09:10:06;;;;;;;4.55;1.20;;;;;;;14.76;82.12;101157.31;5898904;24;20009;-76
2022/09/16 09:12:39;;;;;;;5.18;1.50;;;;;;;14.71;81.77;101149.03;5898950;24;20020;-77
2022/09/16 09:15:15;;;;;;;6.10;1.05;;;;;;;14.60;81.34;101130.81;5898710;24;20013;-76
2022/09/16 09:17:46;;;;;;;5.47;1.20;;;;;;;14.77;77.74;101151.19;5898721;24;20024;-76
2022/09/16 09:20:17;;;;;;;3.67;0.98;;;;;;;14.89;77.64;101159.81;5898328;24;20425;-76
2022/09/16 09:23:10;;;;;;;6.82;1.58;;;;;;;15.23;76.62;101150.25;5898706;24;20013;-77
2022/09/16 09:25:42;;;;;;;4.82;0.95;;;;;;;15.70;74.23;101162.19;6009385;23;20011;-75
2022/09/16 09:28:16;;;;;;;3.83;1.10;;;;;;;15.61;74.14;101118.66;6009116;23;20323;-76
2022/09/16 09:30:54;;;;;;;6.28;1.00;;;;;;;15.56;74.47;101145.97;6009498;23;20046;-77
2022/09/16 09:33:42;;;;;;;7.18;0.90;;;;;;;14.94;71.25;101168.09;6036646;23;20080;-77
2022/09/16 09:36:37;;;;;;;5.47;0.90;;;;;;;13.68;79.99;101219.72;6126867;23;20017;-78
2022/09/16 09:39:18;;;;;;;4.70;1.00;;;;;;;11.90;88.74;101217.63;6126296;23;20044;-75
2022/09/16 09:42:20;;;;;;;1.98;0.50;;;;;;;11.04;94.31;101211.59;6126941;23;20012;-77
2022/09/16 09:45:23;;;;;;;2.42;0.70;;;;;;;10.51;98.70;101175.94;6127013;23;20061;-73
2022/09/16 09:47:58;;;;;;;2.92;0.52;;;;;;;10.78;100.00;101197.59;6127087;23;20069;-78
2022/09/16 09:50:29;;;;;;;3.80;0.75;;;;;;;10.81;100.00;101202.59;6125921;23;20002;-76
2022/09/16 09:53:33;;;;;;;2.33;0.90;;;;;;;10.74;100.00;101195.31;6126604;23;20009;-78
2022/09/16 09:56:17;;;;;;;6.32;1.73;;;;;;;10.78;100.00;101197.59;5981140;24;20012;-78
2022/09/16 09:59:42;;;;;;;5.57;0.80;;;;;;;10.54;100.00;101137.88;5981229;23;20008;-79
2022/09/16 10:02:15;;;;;;;4.32;0.80;;;;;;;10.94;100.00;101189.81;5817399;24;20018;-78
2022/09/16 10:04:42;;;;;;;4.25;1.02;;;;;;;9.96;100.00;101032.78;5817408;24;20038;-79
2022/09/16 10:07:08;;;;;;;2.88;1.08;;;;;;;10.70;100.00;101152.47;5817692;24;20410;-79
2022/09/16 10:09:35;;;;;;;6.22;1.17;;;;;;;10.50;100.00;101118.31;5817668;24;20049;-79
2022/09/16 10:12:01;;;;;;;4.03;1.02;;;;;;;9.94;100.00;101021.72;5795299;24;20133;-82
2022/09/16 10:14:36;;;;;;;4.82;0.95;;;;;;;10.93;100.00;101169.22;5817459;24;20150;-84
2022/09/16 10:17:12;;;;;;;3.92;0.88;;;;;;;10.76;100.00;101159.88;5817599;24;20461;-80
2022/09/16 10:19:58;;;;;;;7.20;1.17;;;;;;;10.97;100.00;101181.03;5817120;24;20088;-80
2022/09/16 10:22:29;;;;;;;4.25;1.17;;;;;;;10.90;100.00;101188.31;5817424;24;20353;-79
2022/09/16 10:24:57;;;;;;;4.85;1.13;;;;;;;10.58;100.00;101148.84;5817447;24;20534;-81
2022/09/16 10:27:26;;;;;;;3.53;1.02;;;;;;;10.87;100.00;101185.91;5817471;24;20027;-83
2022/09/16 10:30:03;;;;;;;5.20;1.33;;;;;;;10.89;100.00;101190.06;5817534;24;20457;-80
2022/09/16 10:32:30;;;;;;;7.05;1.40;;;;;;;10.99;100.00;101180.00;5954474;23;20477;-78
2022/09/16 10:34:55;;;;;;;3.97;1.00;;;;;;;10.94;100.00;101158.81;6037074;23;20011;-78
2022/09/16 10:37:22;;;;;;;7.40;1.05;;;;;;;10.99;100.00;101155.94;6037429;23;20086;-80
2022/09/16 10:39:54;;;;;;;4.53;1.10;;;;;;;11.23;100.00;101172.56;6126202;23;20014;-79
2022/09/16 10:42:29;;;;;;;3.40;1.10;;;;;;;11.23;100.00;101162.22;6126615;23;20002;-79
2022/09/16 10:45:03;;;;;;;2.78;0.95;;;;;;;11.29;100.00;101164.44;6126729;23;20010;-81
2022/09/16 10:47:32;;;;;;;8.07;1.23;;;;;;;11.38;100.00;101150.13;6125924;23;20005;-80
2022/09/16 10:50:02;;;;;;;5.60;1.10;;;;;;;11.83;100.00;101174.09;6125983;23;20339;-80
2022/09/16 10:52:30;;;;;;;5.78;1.48;;;;;;;12.15;100.00;101167.72;6126244;23;20069;-80
2022/09/16 10:54:56;;;;;;;6.25;1.20;;;;;;;12.39;100.00;101172.22;6126123;23;20010;-81
2022/09/16 10:57:30;;;;;;;6.68;1.50;;;;;;;12.73;100.00;101152.72;6126448;23;20081;-79
2022/09/16 10:59:59;;;;;;;3.55;1.15;;;;;;;12.64;96.62;101126.50;6126619;23;20081;-79
2022/09/16 11:02:43;;;;;;;7.70;1.83;;;;;;;12.95;97.05;101154.69;6126525;23;20004;-87
2022/09/16 11:05:19;;;;;;;5.72;1.35;;;;;;;12.95;98.62;101149.50;6125810;23;20063;-80
2022/09/16 11:08:03;;;;;;;6.90;1.10;;;;;;;12.95;97.10;101158.13;6126478;23;20017;-80
2022/09/16 11:11:16;;;;;;;6.70;1.92;;;;;;;12.68;98.54;101131.44;6126744;23;20001;-81
2022/09/16 11:13:50;;;;;;;5.97;1.20;;;;;;;12.87;98.51;101173.34;6106209;23;20012;-80
2022/09/16 11:16:32;;;;;;;7.20;1.35;;;;;;;12.82;96.88;101139.97;6126374;23;20006;-80
2022/09/16 11:19:17;;;;;;;7.85;1.40;;;;;;;13.21;96.54;101164.16;6126375;23;20056;-80
2022/09/16 11:21:55;;;;;;;11.63;1.88;;;;;;;13.26;96.08;101112.78;6126329;23;20009;-81
2022/09/16 11:24:56;;;;;;;5.40;1.42;;;;;;;14.05;96.78;101158.22;6100240;23;20321;-80
2022/09/16 11:27:43;;;;;;;8.13;1.03;;;;;;;14.15;93.42;101102.06;5980241;24;20031;-80
2022/09/16 11:30:32;;;;;;;3.80;0.90;;;;;;;14.58;90.61;101154.31;5980575;24;20245;-80
2022/09/16 11:33:14;;;;;;;7.90;1.92;;;;;;;13.99;87.42;101063.44;5980775;24;20459;-82
2022/09/16 11:36:13;;;;;;;2.95;0.63;;;;;;;14.60;83.04;101170.63;5980417;24;20013;-81
2022/09/16 11:38:58;;;;;;;2.38;0.90;;;;;;;13.97;81.90;101075.69;5980533;24;20012;-86
2022/09/16 11:41:35;;;;;;;3.78;0.60;;;;;;;14.55;81.58;101170.16;5980668;24;20091;-85